createdAt,value
2023-04-26T00:02:19.403Z,75.46
2023-04-26T00:07:23.674Z,75.10
2023-04-26T00:12:25.699Z,75.06
2023-04-26T00:17:27.348Z,75.42
2023-04-26T00:22:28.973Z,75.42
2023-04-26T00:27:30.618Z,75.41
2023-04-26T00:32:32.341Z,75.34
2023-04-26T00:37:34.067Z,75.14
2023-04-26T00:42:36.007Z,75.15
2023-04-26T00:47:38.477Z,75.77
2023-04-26T00:52:40.424Z,76.74
2023-04-26T00:57:42.112Z,76.57
2023-04-26T01:02:44.023Z,77.10
2023-04-26T01:07:46.863Z,77.09
2023-04-26T01:12:48.900Z,76.74
2023-04-26T01:17:52.779Z,77.56
2023-04-26T01:22:54.429Z,77.08
2023-04-26T01:27:56.096Z,77.25
2023-04-26T01:33:00.056Z,76.95
2023-04-26T01:38:01.815Z,77.29
2023-04-26T01:43:03.401Z,77.01
2023-04-26T01:48:05.647Z,77.26
2023-04-26T01:53:07.448Z,77.80
2023-04-26T01:58:10.568Z,77.81
2023-04-26T02:03:12.339Z,78.13
2023-04-26T02:08:14.191Z,77.87
2023-04-26T02:13:15.880Z,77.96
2023-04-26T02:18:17.932Z,77.62
2023-04-26T02:23:19.827Z,77.21
2023-04-26T02:28:21.492Z,76.63
2023-04-26T02:33:23.373Z,77.39
2023-04-26T02:38:28.430Z,76.99
2023-04-26T02:43:32.320Z,77.15
2023-04-26T02:48:33.952Z,77.54
2023-04-26T02:53:35.930Z,77.32
2023-04-26T02:58:37.920Z,77.17
2023-04-26T03:03:40.563Z,77.72
2023-04-26T03:08:42.374Z,78.25
2023-04-26T03:13:44.110Z,77.91
2023-04-26T03:18:46.135Z,77.96
2023-04-26T03:23:47.971Z,78.34
2023-04-26T03:28:50.631Z,78.21
2023-04-26T03:33:52.678Z,78.92
2023-04-26T03:38:54.886Z,79.93
2023-04-26T03:43:56.880Z,79.71
2023-04-26T03:48:58.678Z,79.55
2023-04-26T03:54:00.319Z,79.68
2023-04-26T03:59:02.426Z,80.63
2023-04-26T04:04:04.459Z,80.06
2023-04-26T04:09:06.737Z,80.16
2023-04-26T04:14:08.829Z,80.41
2023-04-26T04:19:10.909Z,78.24
2023-04-26T04:24:12.906Z,77.86
2023-04-26T04:29:15.929Z,77.62
2023-04-26T04:34:19.014Z,77.82
2023-04-26T04:39:21.487Z,78.95
2023-04-26T04:44:24.257Z,77.83
2023-04-26T04:49:28.945Z,77.13
2023-04-26T04:54:30.888Z,75.79
2023-04-26T04:59:33.394Z,73.02
2023-04-26T05:04:35.894Z,71.47
2023-04-26T05:09:38.607Z,69.49
2023-04-26T05:14:41.663Z,68.29
2023-04-26T05:19:43.528Z,67.30
2023-04-26T05:24:46.836Z,65.50
2023-04-26T05:29:49.918Z,64.99
2023-04-26T05:35:20.787Z,61.68
2023-04-26T05:40:22.479Z,61.79
2023-04-26T05:45:24.804Z,62.74
2023-04-26T05:50:27.079Z,62.09
2023-04-26T05:55:28.777Z,63.04
2023-04-26T06:00:30.611Z,63.26
2023-04-26T06:05:32.679Z,63.66
2023-04-26T06:10:35.937Z,62.87
2023-04-26T06:15:37.675Z,63.13
2023-04-26T06:20:40.339Z,62.97
2023-04-26T06:25:45.680Z,63.39
2023-04-26T06:30:48.774Z,63.14
2023-04-26T06:35:50.748Z,62.22
2023-04-26T06:40:53.842Z,62.80
2023-04-26T06:45:55.559Z,62.55
2023-04-26T06:50:57.631Z,62.26
2023-04-26T06:55:59.380Z,62.13
2023-04-26T07:01:01.275Z,61.30
2023-04-26T07:06:02.943Z,60.26
2023-04-26T07:11:10.367Z,60.27
2023-04-26T07:16:12.084Z,58.77
2023-04-26T07:21:14.479Z,58.76
2023-04-26T07:26:16.185Z,58.66
2023-04-26T07:31:18.419Z,58.51
2023-04-26T07:36:20.393Z,57.81
2023-04-26T07:41:23.275Z,57.66
2023-04-26T07:46:25.275Z,55.32
2023-04-26T07:51:27.743Z,55.96
2023-04-26T07:56:29.364Z,53.20
2023-04-26T08:01:30.982Z,52.30
2023-04-26T08:06:33.287Z,52.97
2023-04-26T08:11:35.037Z,53.14
2023-04-26T08:16:36.887Z,52.82
2023-04-26T08:21:38.734Z,51.05
2023-04-26T08:26:41.169Z,51.49
2023-04-26T08:31:42.943Z,50.67
2023-04-26T08:36:45.868Z,51.72
2023-04-26T08:41:53.074Z,50.09
2023-04-26T08:46:57.668Z,50.08
2023-04-26T08:52:01.053Z,48.86
2023-04-26T08:57:03.367Z,48.18
2023-04-26T09:02:07.202Z,48.37
2023-04-26T09:07:12.452Z,48.92
2023-04-26T09:12:16.166Z,47.35
2023-04-26T09:17:36.838Z,48.24
2023-04-26T09:22:38.922Z,48.62
2023-04-26T09:27:46.206Z,47.73
2023-04-26T09:32:57.209Z,46.11
2023-04-26T09:38:13.587Z,46.34
2023-04-26T09:43:21.075Z,46.29
2023-04-26T09:48:30.395Z,47.47
2023-04-26T09:53:36.949Z,46.98
2023-04-26T09:58:40.643Z,48.51
2023-04-26T10:03:43.936Z,46.83
2023-04-26T10:08:45.813Z,48.48
2023-04-26T10:13:50.935Z,47.91
2023-04-26T10:18:52.776Z,47.57
2023-04-26T10:23:54.842Z,46.78
2023-04-26T10:29:02.108Z,47.26
2023-04-26T10:34:21.458Z,49.00
2023-04-26T10:39:23.414Z,49.92
2023-04-26T10:44:40.278Z,49.22
2023-04-26T10:49:46.859Z,49.50
2023-04-26T10:54:52.521Z,50.29
2023-04-26T11:00:16.934Z,50.37
2023-04-26T11:05:42.716Z,49.89
2023-04-26T11:10:51.019Z,49.77
2023-04-26T11:15:54.553Z,49.69
2023-04-26T11:20:57.390Z,50.43
2023-04-26T11:26:09.487Z,51.27
2023-04-26T11:31:11.652Z,49.60
2023-04-26T11:36:14.197Z,49.20
2023-04-26T11:41:15.991Z,48.50
2023-04-26T11:46:20.846Z,48.10
2023-04-26T11:51:23.999Z,47.24
2023-04-26T11:56:26.064Z,48.97
2023-04-26T12:01:29.828Z,48.87
2023-04-26T12:06:46.339Z,48.87
2023-04-26T12:11:58.967Z,48.84
2023-04-26T12:17:03.079Z,48.83
2023-04-26T12:22:06.055Z,47.42
2023-04-26T12:27:08.012Z,49.31
2023-04-26T12:32:09.708Z,49.71
2023-04-26T12:37:12.025Z,50.34
2023-04-26T12:42:13.640Z,48.27
2023-04-26T12:47:15.523Z,47.43
2023-04-26T12:52:17.123Z,47.24
2023-04-26T12:57:20.888Z,47.07
2023-04-26T13:02:23.183Z,47.34
2023-04-26T13:07:25.072Z,46.71
2023-04-26T13:12:27.715Z,47.34
2023-04-26T13:17:29.325Z,46.42
2023-04-26T13:22:31.528Z,47.36
2023-04-26T13:27:33.151Z,45.46
2023-04-26T13:32:35.065Z,45.40
2023-04-26T13:37:37.030Z,45.50
2023-04-26T13:42:39.483Z,45.84
2023-04-26T13:47:41.694Z,46.98
2023-04-26T13:52:43.373Z,47.15
2023-04-26T13:57:45.352Z,48.27
2023-04-26T14:02:47.407Z,47.22
2023-04-26T14:07:49.133Z,47.69
2023-04-26T14:12:50.758Z,48.23
2023-04-26T14:17:52.404Z,48.01
2023-04-26T14:22:54.180Z,47.67
2023-04-26T14:27:55.892Z,48.13
2023-04-26T14:32:57.885Z,47.60
2023-04-26T14:37:59.645Z,47.35
2023-04-26T14:43:01.289Z,47.79
2023-04-26T14:48:03.802Z,48.32
2023-04-26T14:53:05.760Z,48.86
2023-04-26T14:58:07.935Z,48.10
2023-04-26T15:03:09.771Z,47.72
2023-04-26T15:08:11.587Z,47.90
2023-04-26T15:13:13.326Z,48.34
2023-04-26T15:18:15.212Z,47.80
2023-04-26T15:23:17.163Z,47.27
2023-04-26T15:28:18.997Z,48.62
2023-04-26T15:33:20.811Z,48.06
2023-04-26T15:38:23.201Z,47.20
2023-04-26T15:43:25.261Z,49.95
2023-04-26T15:48:26.947Z,50.59
2023-04-26T15:53:28.797Z,50.44
2023-04-26T15:58:30.812Z,50.60
2023-04-26T16:03:32.526Z,49.62
2023-04-26T16:13:40.720Z,49.69
2023-04-26T16:18:43.814Z,49.19
2023-04-26T16:23:45.537Z,50.78
2023-04-26T16:28:47.273Z,49.79
2023-04-26T16:33:48.878Z,49.53
2023-04-26T16:38:50.950Z,49.46
2023-04-26T16:43:54.226Z,49.86
2023-04-26T16:48:55.989Z,50.66
2023-04-26T16:53:57.922Z,51.09
2023-04-26T16:58:59.780Z,51.70
2023-04-26T17:04:01.995Z,52.07
2023-04-26T17:09:04.530Z,52.92
2023-04-26T17:14:06.263Z,53.62
2023-04-26T17:19:08.287Z,54.37
2023-04-26T17:24:09.869Z,53.81
2023-04-26T17:29:11.636Z,53.96
2023-04-26T17:34:13.252Z,55.84
2023-04-26T17:39:15.058Z,55.94
2023-04-26T17:44:16.736Z,56.45
2023-04-26T17:49:18.409Z,55.86
2023-04-26T17:54:20.118Z,56.00
2023-04-26T17:59:21.969Z,56.04
2023-04-26T18:04:23.949Z,56.27
2023-04-26T18:09:26.105Z,56.98
2023-04-26T18:14:27.970Z,56.85
2023-04-26T18:19:29.794Z,56.94
2023-04-26T18:24:31.589Z,57.65
2023-04-26T18:29:33.496Z,57.68
2023-04-26T18:34:35.494Z,57.20
2023-04-26T18:39:37.131Z,56.79
2023-04-26T18:44:39.088Z,57.39
2023-04-26T18:49:40.750Z,57.71
2023-04-26T18:54:42.388Z,58.88
2023-04-26T18:59:44.187Z,59.38
2023-04-26T19:04:49.732Z,60.70
2023-04-26T19:09:54.467Z,60.18
2023-04-26T19:14:56.844Z,59.70
2023-04-26T19:19:58.750Z,59.92
2023-04-26T19:25:01.124Z,60.20
2023-04-26T19:30:03.242Z,60.16
2023-04-26T19:35:06.143Z,60.49
2023-04-26T19:40:10.056Z,60.68
2023-04-26T19:45:12.026Z,60.94
2023-04-26T19:50:13.708Z,61.31
2023-04-26T19:55:15.384Z,61.90
2023-04-26T20:00:17.162Z,62.12
2023-04-26T20:05:18.937Z,62.56
2023-04-26T20:10:23.844Z,61.96
2023-04-26T20:15:26.565Z,62.49
2023-04-26T20:20:28.243Z,63.33
2023-04-26T20:25:29.953Z,63.04
2023-04-26T20:30:33.700Z,63.31
2023-04-26T20:35:35.638Z,64.02
2023-04-26T20:40:37.695Z,64.21
2023-04-26T20:45:40.711Z,64.97
2023-04-26T20:50:42.440Z,65.29
2023-04-26T20:55:44.073Z,65.07
2023-04-26T21:00:49.410Z,66.02
2023-04-26T21:05:51.366Z,65.72
2023-04-26T21:10:52.981Z,66.58
2023-04-26T21:15:54.658Z,66.54
2023-04-26T21:20:56.958Z,67.06
2023-04-26T21:25:58.824Z,66.28
2023-04-26T21:31:07.088Z,66.12
2023-04-26T21:36:09.351Z,65.87
2023-04-26T21:41:10.964Z,65.85
2023-04-26T21:46:12.861Z,67.04
2023-04-26T21:51:14.561Z,68.93
2023-04-26T21:56:16.475Z,69.16
2023-04-26T22:01:18.298Z,69.27
2023-04-26T22:06:20.364Z,69.33
2023-04-26T22:11:22.249Z,70.04
2023-04-26T22:16:23.927Z,70.30
2023-04-26T22:21:27.030Z,70.07
2023-04-26T22:26:28.724Z,69.92
2023-04-26T22:31:30.343Z,70.55
2023-04-26T22:36:32.617Z,70.46
2023-04-26T22:41:34.414Z,70.31
2023-04-26T22:46:36.319Z,70.43
2023-04-26T22:51:37.884Z,70.70
2023-04-26T22:56:39.592Z,70.70
2023-04-26T23:01:41.298Z,70.62
2023-04-26T23:06:44.413Z,71.47
2023-04-26T23:11:46.227Z,71.65
2023-04-26T23:16:47.888Z,72.45
2023-04-26T23:21:49.541Z,72.45
2023-04-26T23:26:51.267Z,72.67
2023-04-26T23:31:54.550Z,72.80
2023-04-26T23:36:56.312Z,72.78
2023-04-26T23:41:57.901Z,72.95
2023-04-26T23:46:59.593Z,73.03
2023-04-26T23:52:01.441Z,73.51
2023-04-26T23:57:04.528Z,73.35
